createdAt,value
2023-01-03T00:02:45.185Z,86.25
2023-01-03T00:07:45.000Z,86.46
2023-01-03T00:12:45.052Z,86.35
2023-01-03T00:17:44.981Z,86.70
2023-01-03T00:22:45.157Z,87.22
2023-01-03T00:27:44.885Z,87.12
2023-01-03T00:32:44.827Z,87.01
2023-01-03T00:37:44.820Z,87.12
2023-01-03T00:42:44.793Z,86.91
2023-01-03T00:47:44.730Z,86.74
2023-01-03T00:52:44.708Z,87.40
2023-01-03T00:57:44.687Z,87.81
2023-01-03T01:02:44.915Z,88.78
2023-01-03T01:07:44.641Z,88.37
2023-01-03T01:12:44.616Z,88.51
2023-01-03T01:17:44.578Z,88.92
2023-01-03T01:22:44.520Z,88.51
2023-01-03T01:27:44.507Z,87.99
2023-01-03T01:32:44.454Z,87.48
2023-01-03T01:37:44.439Z,86.76
2023-01-03T01:42:44.388Z,86.45
2023-01-03T01:47:44.395Z,86.66
2023-01-03T01:52:44.361Z,85.28
2023-01-03T01:57:44.322Z,85.28
2023-01-03T02:02:44.579Z,84.93
2023-01-03T02:07:44.259Z,84.31
2023-01-03T02:12:44.234Z,84.42
2023-01-03T02:17:44.216Z,84.52
2023-01-03T02:22:44.189Z,83.84
2023-01-03T02:27:44.170Z,83.73
2023-01-03T02:32:44.166Z,84.14
2023-01-03T02:37:44.149Z,84.45
2023-01-03T02:42:44.148Z,84.49
2023-01-03T02:47:44.081Z,84.66
2023-01-03T02:52:44.015Z,84.91
2023-01-03T02:57:44.015Z,84.80
2023-01-03T03:02:44.119Z,83.63
2023-01-03T03:07:43.951Z,84.59
2023-01-03T03:12:43.931Z,85.01
2023-01-03T03:17:43.883Z,84.08
2023-01-03T03:22:43.870Z,84.49
2023-01-03T03:27:43.843Z,85.63
2023-01-03T03:32:43.817Z,86.08
2023-01-03T03:37:43.848Z,85.25
2023-01-03T03:42:43.791Z,85.39
2023-01-03T03:47:43.788Z,85.81
2023-01-03T03:52:43.770Z,85.60
2023-01-03T03:57:43.762Z,84.06
2023-01-03T04:02:43.882Z,83.85
2023-01-03T04:07:43.733Z,83.78
2023-01-03T04:12:43.650Z,85.54
2023-01-03T04:17:43.644Z,84.30
2023-01-03T04:22:43.586Z,84.86
2023-01-03T04:27:43.578Z,85.89
2023-01-03T04:32:43.516Z,86.44
2023-01-03T04:37:43.513Z,86.96
2023-01-03T04:42:43.505Z,87.27
2023-01-03T04:47:43.492Z,86.86
2023-01-03T04:52:43.454Z,86.34
2023-01-03T04:57:43.433Z,85.52
2023-01-03T05:02:43.449Z,84.65
2023-01-03T05:07:43.400Z,83.31
2023-01-03T05:12:43.364Z,83.62
2023-01-03T05:17:43.350Z,83.72
2023-01-03T05:22:43.293Z,84.69
2023-01-03T05:27:43.294Z,84.89
2023-01-03T05:32:43.238Z,84.42
2023-01-03T05:37:43.234Z,84.94
2023-01-03T05:42:43.217Z,85.18
2023-01-03T05:47:43.157Z,84.97
2023-01-03T05:52:43.150Z,84.56
2023-01-03T05:57:43.133Z,84.81
2023-01-03T06:02:43.199Z,85.74
2023-01-03T06:07:43.088Z,85.68
2023-01-03T06:12:43.025Z,86.44
2023-01-03T06:17:43.031Z,87.47
2023-01-03T06:22:43.019Z,88.24
2023-01-03T06:27:42.966Z,88.96
2023-01-03T06:32:42.939Z,89.31
2023-01-03T06:37:42.954Z,88.79
2023-01-03T06:42:43.549Z,87.82
2023-01-03T06:47:42.887Z,87.82
2023-01-03T06:52:42.863Z,87.87
2023-01-03T06:57:42.842Z,88.69
2023-01-03T07:02:42.998Z,89.31
2023-01-03T07:07:42.792Z,89.31
2023-01-03T07:12:45.060Z,89.21
2023-01-03T07:17:47.320Z,90.19
2023-01-03T07:22:42.713Z,90.33
2023-01-03T07:27:49.939Z,90.02
2023-01-03T07:32:52.275Z,89.77
2023-01-03T07:38:14.318Z,90.19
2023-01-03T07:46:43.610Z,90.14
2023-01-03T07:47:47.795Z,89.62
2023-01-03T08:00:47.307Z,89.11
2023-01-03T08:00:58.553Z,89.11
2023-01-03T08:05:52.112Z,88.94
2023-01-03T08:11:58.003Z,90.33
2023-01-03T08:15:52.213Z,91.58
2023-01-03T08:20:53.863Z,90.23
2023-01-03T08:25:53.227Z,90.54
2023-01-03T08:38:57.229Z,89.50
2023-01-03T08:40:01.327Z,91.68
2023-01-03T08:44:08.356Z,90.45
2023-01-03T08:49:31.382Z,89.07
2023-01-03T08:55:03.905Z,89.13
2023-01-03T08:59:08.109Z,88.46
2023-01-03T09:04:06.486Z,87.81
2023-01-03T09:13:05.966Z,88.07
2023-01-03T09:20:08.748Z,87.35
2023-01-03T09:20:13.530Z,87.04
2023-01-03T09:25:14.863Z,87.21
2023-01-03T09:30:16.267Z,87.31
2023-01-03T09:35:16.131Z,87.41
2023-01-03T09:40:17.434Z,88.18
2023-01-03T09:45:13.377Z,88.14
2023-01-03T09:50:44.400Z,86.55
2023-01-03T09:55:13.334Z,86.44
2023-01-03T10:00:15.539Z,85.27
2023-01-03T10:05:13.270Z,83.54
2023-01-03T10:10:14.591Z,83.36
2023-01-03T10:15:15.364Z,81.92
2023-01-03T10:20:14.902Z,81.67
2023-01-03T10:25:17.891Z,80.54
2023-01-03T10:30:15.752Z,81.51
2023-01-03T10:35:16.152Z,81.30
2023-01-03T10:40:13.222Z,80.13
2023-01-03T10:45:13.062Z,79.41
2023-01-03T10:50:27.655Z,79.79
2023-01-03T10:55:45.329Z,78.55
2023-01-03T11:00:17.698Z,77.17
2023-01-03T11:05:12.991Z,76.04
2023-01-03T11:10:15.482Z,76.35
2023-01-03T11:15:23.958Z,77.35
2023-01-03T11:20:15.424Z,78.41
2023-01-03T11:26:14.220Z,79.24
2023-01-03T11:30:43.763Z,78.41
2023-01-03T11:35:27.934Z,78.41
2023-01-03T11:40:13.393Z,76.70
2023-01-03T11:47:15.788Z,76.01
2023-01-03T11:50:12.679Z,74.77
2023-01-03T11:55:12.650Z,75.53
2023-01-03T12:04:19.840Z,75.53
2023-01-03T12:05:15.236Z,75.90
2023-01-03T12:10:12.554Z,75.81
2023-01-03T12:15:12.520Z,75.39
2023-01-03T12:20:12.517Z,76.01
2023-01-03T12:25:14.015Z,75.97
2023-01-03T12:30:12.445Z,74.91
2023-01-03T12:35:21.685Z,75.32
2023-01-03T12:40:14.050Z,73.36
2023-01-03T12:45:12.365Z,73.16
2023-01-03T12:50:12.628Z,74.70
2023-01-03T12:55:12.330Z,72.54
2023-01-03T13:00:14.966Z,71.17
2023-01-03T13:05:14.947Z,70.45
2023-01-03T13:22:17.416Z,70.32
2023-01-03T13:22:31.735Z,69.60
2023-01-03T13:27:24.305Z,70.14
2023-01-03T13:32:22.174Z,69.97
2023-01-03T13:37:25.165Z,68.53
2023-01-03T13:42:26.593Z,69.90
2023-01-03T13:51:26.669Z,70.00
2023-01-03T14:04:29.022Z,69.73
2023-01-03T14:12:42.315Z,68.93
2023-01-03T14:13:20.316Z,72.09
2023-01-03T14:31:57.434Z,72.81
2023-01-03T14:32:04.477Z,74.08
2023-01-03T14:37:07.503Z,73.98
2023-01-03T17:16:01.446Z,90.50
2023-01-03T17:21:02.662Z,89.98
2023-01-03T17:26:02.355Z,90.50
2023-01-03T17:31:02.365Z,90.60
2023-01-03T17:36:02.674Z,90.44
2023-01-03T17:41:02.295Z,90.85
2023-01-03T17:46:02.317Z,90.50
2023-01-03T17:51:02.185Z,90.08
2023-01-03T17:56:02.202Z,90.50
2023-01-03T18:01:02.147Z,90.25
2023-01-03T18:06:02.096Z,90.10
2023-01-03T18:11:02.091Z,89.85
2023-01-03T18:16:02.109Z,89.60
2023-01-03T18:21:02.070Z,88.84
2023-01-03T18:26:01.993Z,89.56
2023-01-03T18:31:02.011Z,89.21
2023-01-03T18:36:01.933Z,89.06
2023-01-03T18:41:05.384Z,88.92
2023-01-03T18:46:02.004Z,88.78
2023-01-03T18:51:01.916Z,89.61
2023-01-03T18:56:01.855Z,89.61
2023-01-03T19:01:01.848Z,89.61
2023-01-03T19:06:01.798Z,90.64
2023-01-03T19:11:01.797Z,91.16
2023-01-03T19:16:01.940Z,91.37
2023-01-03T19:21:01.781Z,91.47
2023-01-03T19:26:01.747Z,91.37
2023-01-03T19:31:02.566Z,91.58
2023-01-03T19:36:01.663Z,91.89
2023-01-03T19:41:01.602Z,91.99
2023-01-03T19:46:01.641Z,91.99
2023-01-03T19:51:01.600Z,92.20
2023-01-03T19:56:01.540Z,92.20
2023-01-03T20:01:01.570Z,92.72
2023-01-03T20:06:01.551Z,92.41
2023-01-03T20:11:01.471Z,92.76
2023-01-03T20:16:01.531Z,93.07
2023-01-03T20:21:01.400Z,92.86
2023-01-03T20:26:01.405Z,92.72
2023-01-03T20:31:01.386Z,92.82
2023-01-03T20:36:22.596Z,92.26
2023-01-03T20:41:01.262Z,92.05
2023-01-03T20:46:01.241Z,91.80
2023-01-03T20:51:01.224Z,91.80
2023-01-03T20:56:01.196Z,91.70
2023-01-03T21:01:04.825Z,91.70
2023-01-03T21:06:01.141Z,91.70
2023-01-03T21:11:01.128Z,91.66
2023-01-03T21:16:01.195Z,91.66
2023-01-03T21:21:01.044Z,91.97
2023-01-03T21:26:01.013Z,91.60
2023-01-03T21:31:04.988Z,91.91
2023-01-03T21:36:00.940Z,92.11
2023-01-03T21:41:00.920Z,92.01
2023-01-03T21:46:00.928Z,92.36
2023-01-03T21:51:00.879Z,92.57
2023-01-03T21:56:00.847Z,92.36
2023-01-03T22:01:00.875Z,92.36
2023-01-03T22:06:00.767Z,92.47
2023-01-03T22:11:00.734Z,92.57
2023-01-03T22:16:00.753Z,92.61
2023-01-03T22:21:00.685Z,92.82
2023-01-03T22:26:00.669Z,93.59
2023-01-03T22:31:00.647Z,93.70
2023-01-03T22:36:00.621Z,94.05
2023-01-03T22:41:00.619Z,94.26
2023-01-03T22:46:00.630Z,94.05
2023-01-03T22:51:00.531Z,93.84
2023-01-03T22:56:00.525Z,93.74
2023-01-03T23:01:00.540Z,93.47
2023-01-03T23:06:00.443Z,93.99
2023-01-03T23:11:00.409Z,93.68
2023-01-03T23:16:00.412Z,93.12
2023-01-03T23:21:01.112Z,93.32
2023-01-03T23:26:00.326Z,93.32
2023-01-03T23:31:00.340Z,93.01
2023-01-03T23:36:00.233Z,92.90
2023-01-03T23:41:00.172Z,92.80
2023-01-03T23:46:00.262Z,92.80
2023-01-03T23:51:00.095Z,92.80
2023-01-03T23:56:00.093Z,92.35
